Time;durP1;ratioP1;P1;durP2;ratioP2;P2;SDS_P1;SDS_P2;PMS_P1;PMS_P2;Temp;Humidity;BMP_temperature;BMP_pressure;BME280_temperature;BME280_humidity;BME280_pressure;Samples;Min_cycle;Max_cycle;Signal;HPM_P1;HPM_P2
2023/07/11 04:01:51;;;;;;;5.30;4.80;;;23.60;64.10;;;;;;5446539;23;20596;-74
2023/07/11 04:04:17;;;;;;;5.47;4.30;;;23.60;64.10;;;;;;4995127;28;20464;-74
2023/07/11 04:06:44;;;;;;;3.90;3.57;;;23.60;64.20;;;;;;4995099;28;20855;-74
2023/07/11 04:09:11;;;;;;;5.80;5.30;;;23.50;64.30;;;;;;4995452;28;20818;-74
2023/07/11 04:11:37;;;;;;;4.90;4.40;;;23.50;64.50;;;;;;4995231;28;20465;-75
2023/07/11 04:14:04;;;;;;;4.53;3.70;;;23.50;64.70;;;;;;4995824;28;20464;-73
2023/07/11 04:16:31;;;;;;;4.70;4.30;;;23.60;64.60;;;;;;4995342;28;20457;-73
2023/07/11 04:18:59;;;;;;;4.63;4.20;;;23.60;64.80;;;;;;4996305;28;20457;-74
2023/07/11 04:21:25;;;;;;;4.93;4.37;;;23.60;64.90;;;;;;4996606;28;20519;-74
2023/07/11 04:23:54;;;;;;;5.70;4.60;;;23.70;64.80;;;;;;4996022;28;20941;-74
2023/07/11 04:26:21;;;;;;;5.03;4.57;;;23.80;64.60;;;;;;4996500;28;20457;-74
2023/07/11 04:28:47;;;;;;;4.90;4.00;;;23.80;64.60;;;;;;4996481;28;20508;-73
2023/07/11 04:31:14;;;;;;;4.93;4.43;;;23.90;64.50;;;;;;4994670;28;20524;-72
2023/07/11 04:33:41;;;;;;;4.93;4.43;;;24.00;64.50;;;;;;4994625;28;20508;-73
2023/07/11 04:36:15;;;;;;;5.33;4.30;;;24.00;64.90;;;;;;4994593;28;20449;-73
2023/07/11 04:38:43;;;;;;;4.60;4.07;;;24.00;64.70;;;;;;4994671;28;20436;-73
2023/07/11 04:41:10;;;;;;;4.77;4.37;;;24.10;64.50;;;;;;4994577;28;20473;-73
2023/07/11 04:43:37;;;;;;;4.27;3.87;;;24.20;64.30;;;;;;4994206;28;20457;-73
2023/07/11 04:46:06;;;;;;;3.47;3.17;;;24.20;64.40;;;;;;4995046;28;20456;-74
2023/07/11 04:48:33;;;;;;;4.33;3.70;;;24.20;64.60;;;;;;4994629;28;20946;-73
2023/07/11 04:51:02;;;;;;;5.00;4.50;;;24.20;65.10;;;;;;4994450;28;20492;-73
2023/07/11 04:53:32;;;;;;;4.10;3.70;;;24.20;65.30;;;;;;4994407;28;20460;-74
2023/07/11 04:56:00;;;;;;;4.93;3.23;;;24.40;64.90;;;;;;4994169;28;20938;-73
2023/07/11 04:58:29;;;;;;;3.73;3.33;;;24.50;64.90;;;;;;4994440;28;20445;-73
2023/07/11 05:01:00;;;;;;;3.53;2.83;;;24.50;64.80;;;;;;4994240;28;20564;-74
2023/07/11 05:03:27;;;;;;;2.43;1.90;;;24.60;64.20;;;;;;4994443;28;20441;-73
2023/07/11 05:05:53;;;;;;;3.20;2.73;;;24.60;64.00;;;;;;4994387;28;20454;-74
2023/07/11 05:08:20;;;;;;;3.40;2.40;;;24.70;63.80;;;;;;4994064;28;20453;-74
2023/07/11 05:10:54;;;;;;;2.63;2.10;;;24.70;63.70;;;;;;4994162;28;20547;-73
2023/07/11 05:13:21;;;;;;;2.30;1.93;;;24.80;63.30;;;;;;4993929;28;20907;-74
2023/07/11 05:15:48;;;;;;;3.47;2.53;;;24.70;63.60;;;;;;4994785;28;20796;-72
2023/07/11 05:18:14;;;;;;;3.00;2.17;;;24.90;64.10;;;;;;4993982;28;20445;-74
2023/07/11 05:20:41;;;;;;;2.70;2.27;;;25.00;63.60;;;;;;4993631;28;21040;-73
2023/07/11 05:23:08;;;;;;;2.40;1.90;;;25.00;63.20;;;;;;4994148;28;20503;-74
2023/07/11 05:25:37;;;;;;;4.43;2.00;;;25.20;62.60;;;;;;4994109;28;20501;-73
2023/07/11 05:28:05;;;;;;;2.70;2.17;;;25.20;62.10;;;;;;4993856;28;20441;-73
2023/07/11 05:30:32;;;;;;;3.63;2.60;;;25.10;62.60;;;;;;4993671;28;20488;-72
2023/07/11 05:32:59;;;;;;;2.97;2.67;;;25.30;63.40;;;;;;4993794;28;20450;-73
2023/07/11 05:35:25;;;;;;;4.07;2.53;;;25.00;64.20;;;;;;4993905;28;20516;-74
2023/07/11 05:37:52;;;;;;;3.60;2.43;;;24.90;64.50;;;;;;4993735;28;20504;-73
2023/07/11 05:40:19;;;;;;;3.23;2.87;;;25.00;64.50;;;;;;4993705;28;20448;-73
2023/07/11 05:42:45;;;;;;;2.67;2.30;;;25.10;64.50;;;;;;4993782;28;20469;-73
2023/07/11 05:45:13;;;;;;;3.70;2.80;;;25.40;64.10;;;;;;4993807;28;20453;-73
2023/07/11 05:47:40;;;;;;;3.30;2.27;;;25.70;61.90;;;;;;4993781;28;20453;-73
2023/07/11 05:50:08;;;;;;;2.63;2.00;;;25.90;62.40;;;;;;4993618;28;20532;-73
2023/07/11 05:52:34;;;;;;;3.63;2.10;;;26.10;62.20;;;;;;4993733;28;20469;-74
2023/07/11 05:55:01;;;;;;;3.00;2.40;;;26.30;61.60;;;;;;4997031;28;20452;-74
2023/07/11 05:57:28;;;;;;;4.40;2.30;;;26.40;60.40;;;;;;4998118;28;20457;-74
2023/07/11 05:59:54;;;;;;;3.70;2.50;;;26.40;61.60;;;;;;4997602;28;20597;-74
2023/07/11 06:02:22;;;;;;;3.30;2.00;;;26.70;61.30;;;;;;4997097;28;20477;-73
2023/07/11 06:04:49;;;;;;;3.20;2.37;;;26.60;59.60;;;;;;4997223;28;21009;-73
2023/07/11 06:07:16;;;;;;;3.13;2.20;;;26.70;60.60;;;;;;4997039;28;20452;-74
2023/07/11 06:09:42;;;;;;;3.30;2.50;;;26.80;59.30;;;;;;4996918;28;20968;-74
2023/07/11 06:12:09;;;;;;;3.13;2.60;;;26.90;59.80;;;;;;4996846;28;20853;-73
2023/07/11 06:14:36;;;;;;;2.93;2.63;;;26.80;58.80;;;;;;4997385;28;20464;-73
2023/07/11 06:17:03;;;;;;;3.43;2.80;;;26.80;60.50;;;;;;4997171;28;20864;-74
2023/07/11 06:19:31;;;;;;;3.20;2.30;;;27.00;59.20;;;;;;4997080;28;20864;-74
2023/07/11 06:21:58;;;;;;;2.73;2.00;;;27.20;59.90;;;;;;4996685;28;20829;-73
2023/07/11 06:24:25;;;;;;;2.60;1.70;;;27.40;57.90;;;;;;4997070;28;20476;-74
2023/07/11 06:26:51;;;;;;;2.33;2.13;;;27.50;57.90;;;;;;4996918;28;20862;-74
2023/07/11 06:29:18;;;;;;;4.17;2.70;;;27.70;58.30;;;;;;4996595;28;20922;-77
2023/07/11 06:31:45;;;;;;;2.87;2.53;;;27.70;57.30;;;;;;4996325;28;20914;-76
2023/07/11 06:34:12;;;;;;;2.30;1.80;;;27.90;57.00;;;;;;4996742;28;20481;-77
2023/07/11 06:36:40;;;;;;;2.53;2.13;;;27.90;56.90;;;;;;4996686;28;20453;-77
2023/07/11 06:39:07;;;;;;;2.80;2.00;;;28.10;57.80;;;;;;4996396;28;21008;-78
2023/07/11 06:41:34;;;;;;;3.60;2.10;;;28.20;57.00;;;;;;4996498;28;20460;-78
2023/07/11 06:44:01;;;;;;;3.20;2.40;;;28.30;55.70;;;;;;4996616;28;20453;-78
2023/07/11 06:46:27;;;;;;;2.30;2.10;;;28.30;54.00;;;;;;4996209;28;20950;-78
2023/07/11 06:48:55;;;;;;;3.63;2.37;;;28.10;54.90;;;;;;4996347;28;20943;-78
2023/07/11 06:51:21;;;;;;;3.40;2.33;;;28.00;55.20;;;;;;4996329;28;20900;-78
2023/07/11 06:53:50;;;;;;;3.37;1.90;;;28.10;55.60;;;;;;4996107;28;20871;-78
2023/07/11 06:56:17;;;;;;;3.50;2.40;;;28.20;55.20;;;;;;4996434;28;20456;-78
2023/07/11 06:58:45;;;;;;;2.63;2.23;;;28.20;54.30;;;;;;4996313;28;20449;-78
2023/07/11 07:01:12;;;;;;;2.27;1.73;;;28.20;55.10;;;;;;4995939;28;20497;-78
2023/07/11 07:03:39;;;;;;;3.00;2.57;;;28.40;55.20;;;;;;4996225;28;20430;-78
2023/07/11 07:06:10;;;;;;;3.23;2.27;;;28.50;55.00;;;;;;4994650;28;20853;-78
2023/07/11 07:08:37;;;;;;;2.87;2.57;;;28.30;53.00;;;;;;4995900;28;20438;-79
2023/07/11 07:11:05;;;;;;;2.70;2.40;;;28.00;54.40;;;;;;4996018;28;20916;-79
2023/07/11 07:13:32;;;;;;;2.37;2.03;;;28.00;54.30;;;;;;4996018;28;20445;-78
2023/07/11 07:16:02;;;;;;;2.77;2.47;;;27.90;55.30;;;;;;4996228;28;20441;-79
2023/07/11 07:18:32;;;;;;;2.87;2.10;;;28.40;55.10;;;;;;4995972;28;20488;-79
2023/07/11 07:20:59;;;;;;;3.20;2.33;;;28.50;54.50;;;;;;4995836;28;20501;-79
2023/07/11 07:23:26;;;;;;;2.30;2.07;;;28.80;54.90;;;;;;4995846;28;20821;-79
2023/07/11 07:25:54;;;;;;;2.73;2.27;;;28.80;53.30;;;;;;4995835;28;20946;-78
2023/07/11 07:28:22;;;;;;;2.30;2.00;;;28.90;53.10;;;;;;4995421;28;20453;-78
2023/07/11 07:30:51;;;;;;;4.67;2.30;;;29.00;52.80;;;;;;4995580;28;20488;-79
2023/07/11 07:33:18;;;;;;;2.90;2.50;;;29.00;53.80;;;;;;4995641;28;20460;-78
2023/07/11 07:35:45;;;;;;;3.20;2.37;;;29.10;52.50;;;;;;4995651;28;20445;-78
2023/07/11 07:38:12;;;;;;;2.80;2.40;;;29.20;52.90;;;;;;4995528;28;20495;-78
2023/07/11 07:40:39;;;;;;;2.20;1.90;;;29.30;53.50;;;;;;4995619;28;20496;-78
2023/07/11 07:43:05;;;;;;;2.63;2.00;;;29.20;53.40;;;;;;4995163;28;20833;-78
2023/07/11 07:45:33;;;;;;;2.80;2.30;;;29.40;53.70;;;;;;4995511;28;20450;-78
2023/07/11 07:48:00;;;;;;;3.30;2.40;;;29.60;52.80;;;;;;4995456;28;20449;-78
2023/07/11 07:50:27;;;;;;;2.57;2.23;;;29.70;53.00;;;;;;4995249;28;20473;-78
2023/07/11 07:52:53;;;;;;;3.33;2.67;;;29.70;53.50;;;;;;4995283;28;20480;-77
2023/07/11 07:55:20;;;;;;;2.93;2.37;;;29.80;52.90;;;;;;4995277;28;20445;-78
2023/07/11 07:57:47;;;;;;;2.50;2.30;;;30.10;52.60;;;;;;4995213;28;20486;-78
2023/07/11 08:00:14;;;;;;;2.87;2.10;;;30.20;51.90;;;;;;4995541;28;20445;-78
2023/07/11 08:02:42;;;;;;;3.07;2.43;;;30.30;52.10;;;;;;4995064;28;21034;-78
2023/07/11 08:05:09;;;;;;;3.67;2.57;;;30.40;53.30;;;;;;4995216;28;20548;-79
2023/07/11 08:07:36;;;;;;;3.03;2.40;;;30.40;52.40;;;;;;4994915;28;20846;-78
2023/07/11 08:10:02;;;;;;;2.77;2.40;;;30.20;52.90;;;;;;4995237;28;20453;-79
2023/07/11 08:12:29;;;;;;;2.77;2.30;;;30.20;52.70;;;;;;4994754;28;21014;-78
2023/07/11 08:14:56;;;;;;;2.93;2.30;;;30.10;52.70;;;;;;4994767;28;20457;-78
2023/07/11 08:17:22;;;;;;;4.10;2.23;;;30.20;53.40;;;;;;4994577;28;20492;-78
2023/07/11 08:19:50;;;;;;;2.70;2.30;;;30.30;52.40;;;;;;4994968;28;20450;-78
2023/07/11 08:22:17;;;;;;;2.87;2.57;;;30.40;52.40;;;;;;4994772;28;20469;-78
2023/07/11 08:24:44;;;;;;;2.50;2.30;;;30.30;53.50;;;;;;4995009;28;20512;-77
2023/07/11 08:27:10;;;;;;;2.63;2.20;;;30.10;53.20;;;;;;4994779;28;20481;-77
2023/07/11 08:29:37;;;;;;;3.00;2.27;;;30.10;54.50;;;;;;4994394;28;21072;-77
2023/07/11 08:32:05;;;;;;;3.53;2.13;;;30.30;54.70;;;;;;4994484;28;20500;-76
2023/07/11 08:34:32;;;;;;;2.50;2.17;;;30.50;55.20;;;;;;4994595;28;20476;-77
2023/07/11 08:37:00;;;;;;;2.83;2.60;;;30.80;53.60;;;;;;4994655;28;20449;-78
2023/07/11 08:39:27;;;;;;;3.27;2.57;;;30.70;53.90;;;;;;4994497;28;20449;-77
2023/07/11 08:41:55;;;;;;;2.87;2.20;;;30.80;54.00;;;;;;4994425;28;20540;-77
2023/07/11 08:44:32;;;;;;;3.77;2.30;;;30.90;54.00;;;;;;4994077;28;21013;-76
2023/07/11 08:47:04;;;;;;;2.10;1.90;;;31.20;53.60;;;;;;4994482;28;20437;-77
2023/07/11 08:49:45;;;;;;;2.60;2.20;;;31.10;53.60;;;;;;4994286;28;20433;-77
2023/07/11 08:52:15;;;;;;;4.13;2.47;;;30.70;54.90;;;;;;4994142;28;20559;-76
2023/07/11 08:54:50;;;;;;;3.27;2.50;;;30.90;54.90;;;;;;4994296;28;20496;-77
2023/07/11 08:57:18;;;;;;;3.07;2.57;;;31.10;55.10;;;;;;4993949;28;20853;-77
2023/07/11 08:59:53;;;;;;;3.53;3.10;;;31.00;53.40;;;;;;4993841;28;20939;-77
2023/07/11 09:02:29;;;;;;;2.60;2.33;;;30.90;54.60;;;;;;4993904;28;20523;-76
2023/07/11 09:04:58;;;;;;;2.63;2.43;;;31.10;55.40;;;;;;4994083;28;20495;-77
2023/07/11 09:07:35;;;;;;;3.10;2.33;;;31.10;55.50;;;;;;4994034;28;20457;-77
2023/07/11 09:10:02;;;;;;;4.40;2.60;;;31.00;55.10;;;;;;4993737;28;20957;-77
2023/07/11 09:12:40;;;;;;;3.20;2.40;;;31.10;54.70;;;;;;4994086;28;20492;-77
2023/07/11 09:15:18;;;;;;;3.40;2.20;;;31.10;55.10;;;;;;4993752;28;20798;-77
2023/07/11 09:17:56;;;;;;;3.03;2.73;;;31.00;56.10;;;;;;4994074;28;20429;-77
2023/07/11 09:20:31;;;;;;;4.00;2.87;;;31.30;54.60;;;;;;4994345;28;20441;-77
2023/07/11 09:23:13;;;;;;;4.90;3.10;;;31.50;54.20;;;;;;4993867;28;20512;-77
2023/07/11 09:25:43;;;;;;;2.63;2.43;;;31.70;53.20;;;;;;4993650;28;20917;-77
2023/07/11 09:28:14;;;;;;;3.03;2.67;;;32.00;52.90;;;;;;4993855;28;20484;-77
2023/07/11 09:30:48;;;;;;;3.23;2.90;;;32.20;52.70;;;;;;4997834;28;20471;-77
2023/07/11 09:33:17;;;;;;;2.73;2.40;;;32.40;53.00;;;;;;4997640;28;20922;-76
2023/07/11 09:35:45;;;;;;;3.63;2.97;;;32.70;52.80;;;;;;4997848;28;20564;-77
2023/07/11 09:38:18;;;;;;;3.47;2.70;;;33.00;52.30;;;;;;4997502;28;20449;-76
2023/07/11 09:40:49;;;;;;;2.80;2.07;;;33.20;50.10;;;;;;4997595;28;20473;-76
2023/07/11 09:43:15;;;;;;;2.73;2.53;;;33.20;49.90;;;;;;4997784;28;20818;-76
2023/07/11 09:45:46;;;;;;;2.83;2.50;;;33.00;50.20;;;;;;4997674;28;20528;-76
2023/07/11 09:48:15;;;;;;;3.90;2.57;;;33.10;49.60;;;;;;4997551;28;20465;-76
2023/07/11 09:51:01;;;;;;;3.00;2.70;;;32.90;50.20;;;;;;4997447;28;20473;-76
2023/07/11 09:53:31;;;;;;;3.30;2.60;;;32.60;50.50;;;;;;4997597;28;20429;-77
2023/07/11 09:56:00;;;;;;;3.20;2.90;;;32.60;50.50;;;;;;4997588;28;20433;-77
2023/07/11 09:58:29;;;;;;;2.77;2.27;;;32.60;50.10;;;;;;4997451;28;20453;-77
2023/07/11 10:01:01;;;;;;;3.50;2.27;;;32.80;49.60;;;;;;4997226;28;20572;-76
2023/07/11 10:03:30;;;;;;;3.40;2.70;;;33.00;49.60;;;;;;4997095;28;20977;-77
2023/07/11 10:05:58;;;;;;;4.50;2.60;;;33.10;50.30;;;;;;4997307;28;20445;-77
2023/07/11 10:08:30;;;;;;;3.27;2.97;;;32.80;50.00;;;;;;4996950;28;20861;-76
2023/07/11 10:11:03;;;;;;;2.77;2.50;;;32.60;50.00;;;;;;4997283;28;20483;-76
2023/07/11 10:13:30;;;;;;;3.07;2.63;;;32.70;50.30;;;;;;4997771;28;20448;-76
2023/07/11 10:15:58;;;;;;;3.13;2.83;;;32.70;50.20;;;;;;4997846;28;20473;-76
2023/07/11 10:18:29;;;;;;;2.67;2.10;;;32.60;50.80;;;;;;4997357;28;20449;-75
2023/07/11 10:20:58;;;;;;;3.60;3.10;;;32.70;50.10;;;;;;4997036;28;20465;-75
2023/07/11 10:23:26;;;;;;;2.93;2.63;;;32.80;50.10;;;;;;4997027;28;20445;-74
2023/07/11 10:26:03;;;;;;;3.67;2.77;;;33.00;50.30;;;;;;4997016;28;20451;-75
2023/07/11 10:28:33;;;;;;;2.87;2.30;;;33.20;49.90;;;;;;4996681;28;20425;-75
2023/07/11 10:31:07;;;;;;;3.07;2.70;;;33.30;49.30;;;;;;4996620;28;20507;-75
2023/07/11 10:33:41;;;;;;;4.43;2.47;;;33.40;48.90;;;;;;4996795;28;20480;-75
2023/07/11 10:36:19;;;;;;;3.23;2.93;;;33.40;49.60;;;;;;4997555;28;20429;-76
2023/07/11 10:38:52;;;;;;;3.63;2.37;;;33.80;49.90;;;;;;4996773;28;20441;-75
2023/07/11 10:41:26;;;;;;;3.70;2.57;;;34.10;48.70;;;;;;4996363;28;20897;-75
2023/07/11 10:43:53;;;;;;;3.53;2.73;;;34.10;48.20;;;;;;4996634;28;20491;-76
2023/07/11 10:46:32;;;;;;;3.07;2.43;;;33.90;49.30;;;;;;4996542;28;20456;-76
2023/07/11 10:49:06;;;;;;;3.50;3.07;;;33.90;49.30;;;;;;4996541;28;20442;-75
2023/07/11 10:51:37;;;;;;;2.90;2.60;;;33.80;49.90;;;;;;4996379;28;20496;-76
2023/07/11 10:54:10;;;;;;;3.27;2.93;;;33.80;50.40;;;;;;4996764;28;20497;-76
2023/07/11 10:56:41;;;;;;;3.20;2.90;;;34.10;49.00;;;;;;4996435;28;20441;-76
2023/07/11 10:59:12;;;;;;;3.23;2.90;;;34.30;49.90;;;;;;4996681;28;20438;-76
2023/07/11 11:01:48;;;;;;;3.10;2.80;;;34.30;48.30;;;;;;4996173;28;20477;-75
2023/07/11 11:04:31;;;;;;;3.30;2.80;;;34.10;49.60;;;;;;4996363;28;20434;-76
2023/07/11 11:07:04;;;;;;;2.97;2.73;;;34.00;49.30;;;;;;4996284;28;20429;-75
2023/07/11 11:09:39;;;;;;;3.10;2.70;;;33.90;49.70;;;;;;4995806;28;21018;-74
2023/07/11 11:12:19;;;;;;;3.80;3.20;;;33.70;49.90;;;;;;4995995;28;20585;-75
2023/07/11 11:14:52;;;;;;;2.77;2.57;;;33.90;50.30;;;;;;4996161;28;20444;-76
2023/07/11 11:17:34;;;;;;;2.83;2.60;;;33.80;49.80;;;;;;4996053;28;20433;-75
2023/07/11 11:20:12;;;;;;;3.17;2.93;;;33.90;49.90;;;;;;4996064;28;20434;-76
2023/07/11 11:22:47;;;;;;;2.97;2.67;;;34.10;49.90;;;;;;4996155;28;20490;-77
2023/07/11 11:25:20;;;;;;;5.23;2.97;;;34.30;48.90;;;;;;4996113;28;20492;-77
2023/07/11 11:27:56;;;;;;;3.23;2.93;;;34.10;49.00;;;;;;4995819;28;20425;-75
2023/07/11 11:30:33;;;;;;;3.03;2.40;;;34.10;49.40;;;;;;4995490;28;20433;-75
2023/07/11 11:33:12;;;;;;;4.60;3.43;;;34.30;50.70;;;;;;4995857;28;20469;-75
2023/07/11 11:35:48;;;;;;;3.60;3.00;;;34.60;49.40;;;;;;4995934;28;20436;-75
2023/07/11 11:38:28;;;;;;;3.00;2.70;;;35.00;48.80;;;;;;4995791;28;20434;-76
2023/07/11 11:40:58;;;;;;;3.10;2.60;;;35.30;48.00;;;;;;4995328;28;20476;-75
2023/07/11 11:43:28;;;;;;;3.43;2.33;;;35.40;47.70;;;;;;4995195;28;20942;-76
2023/07/11 11:45:55;;;;;;;3.00;2.70;;;35.50;46.90;;;;;;4995492;28;20500;-76
2023/07/11 11:48:25;;;;;;;3.13;2.87;;;35.30;47.70;;;;;;4995368;28;20449;-75
2023/07/11 11:50:53;;;;;;;3.67;2.80;;;35.30;47.60;;;;;;4995330;28;20523;-77
2023/07/11 11:53:23;;;;;;;2.20;2.00;;;35.30;47.20;;;;;;4995212;28;21080;-77
2023/07/11 11:55:56;;;;;;;3.20;2.90;;;35.30;48.30;;;;;;4997308;28;20565;-77
2023/07/11 11:58:24;;;;;;;3.47;2.80;;;35.30;47.60;;;;;;4996317;28;20468;-77
2023/07/11 12:00:54;;;;;;;2.70;2.50;;;35.20;47.70;;;;;;4995799;28;20491;-78
2023/07/11 12:03:27;;;;;;;2.63;2.43;;;35.10;48.00;;;;;;4995633;28;20856;-77
2023/07/11 12:05:56;;;;;;;3.53;2.80;;;34.90;47.50;;;;;;4995162;28;20441;-77
2023/07/11 12:08:32;;;;;;;3.73;3.10;;;34.60;48.40;;;;;;4994633;28;20942;-78
2023/07/11 12:11:20;;;;;;;3.50;2.80;;;34.70;49.10;;;;;;4994941;28;20539;-78
2023/07/11 12:14:13;;;;;;;3.13;2.83;;;35.00;48.50;;;;;;4994864;28;20465;-77
2023/07/11 12:16:41;;;;;;;2.90;2.40;;;35.40;47.70;;;;;;4995168;28;20444;-77
2023/07/11 12:19:27;;;;;;;3.37;2.37;;;35.60;47.10;;;;;;4994924;28;20453;-78
2023/07/11 12:21:58;;;;;;;2.60;2.40;;;35.80;46.20;;;;;;4994416;28;20974;-78
2023/07/11 12:24:41;;;;;;;4.03;2.87;;;35.70;47.00;;;;;;4994701;28;20434;-77
2023/07/11 12:27:43;;;;;;;3.03;2.63;;;35.80;46.40;;;;;;4994759;28;20524;-78
2023/07/11 12:30:38;;;;;;;3.20;2.80;;;35.90;46.40;;;;;;4994850;28;20448;-77
2023/07/11 12:33:35;;;;;;;4.10;2.17;;;36.10;45.40;;;;;;4986297;28;20563;-77
2023/07/11 12:36:24;;;;;;;3.30;2.80;;;36.30;45.40;;;;;;4994641;28;20440;-77
2023/07/11 12:38:59;;;;;;;3.67;3.17;;;36.40;44.10;;;;;;4994606;28;20437;-78
2023/07/11 12:41:34;;;;;;;3.50;2.87;;;36.70;43.30;;;;;;4994147;28;20997;-77
2023/07/11 12:44:02;;;;;;;5.23;2.40;;;36.70;42.90;;;;;;4995102;28;20473;-78
2023/07/11 12:46:34;;;;;;;3.33;3.03;;;36.70;43.90;;;;;;4994638;28;20457;-77
2023/07/11 12:49:12;;;;;;;3.20;2.23;;;36.80;43.30;;;;;;4994710;28;20492;-78
2023/07/11 12:51:39;;;;;;;2.83;2.50;;;37.00;42.90;;;;;;4994848;28;20472;-78
2023/07/11 12:54:15;;;;;;;3.03;2.43;;;37.10;42.40;;;;;;4994961;28;20485;-78
2023/07/11 12:56:43;;;;;;;4.33;2.67;;;37.20;43.40;;;;;;4994597;28;20495;-77
2023/07/11 12:59:20;;;;;;;3.40;2.53;;;37.20;42.80;;;;;;4994283;28;20499;-77
2023/07/11 13:01:49;;;;;;;2.70;2.50;;;37.30;41.50;;;;;;4993973;28;20586;-77
2023/07/11 13:04:24;;;;;;;3.90;2.50;;;37.30;41.60;;;;;;4994577;28;20448;-77
2023/07/11 13:06:54;;;;;;;3.23;2.93;;;37.30;41.80;;;;;;4994519;28;20433;-77
2023/07/11 13:09:21;;;;;;;3.00;2.60;;;37.10;41.70;;;;;;4994181;28;20467;-77
2023/07/11 13:11:48;;;;;;;3.53;2.60;;;37.00;42.50;;;;;;4993879;28;20464;-76
2023/07/11 13:14:15;;;;;;;3.03;2.73;;;37.00;42.30;;;;;;4993985;28;20452;-78
2023/07/11 13:16:43;;;;;;;3.27;2.63;;;37.10;42.50;;;;;;4994020;28;20498;-77
2023/07/11 13:19:14;;;;;;;3.03;2.60;;;37.00;42.90;;;;;;4993814;28;20440;-76
2023/07/11 13:21:43;;;;;;;3.00;2.60;;;36.90;43.00;;;;;;4993960;28;20559;-77
2023/07/11 13:24:13;;;;;;;3.30;2.67;;;37.10;42.90;;;;;;4993956;28;20532;-77
2023/07/11 13:26:40;;;;;;;2.50;2.10;;;37.20;42.50;;;;;;4994018;28;20525;-77
2023/07/11 13:29:15;;;;;;;2.87;2.50;;;37.30;42.90;;;;;;4993859;28;20445;-76
2023/07/11 13:31:44;;;;;;;3.17;2.50;;;37.40;43.20;;;;;;4993730;28;20973;-77
2023/07/11 13:34:24;;;;;;;2.50;2.27;;;37.40;42.90;;;;;;4993438;28;20936;-77
2023/07/11 13:36:52;;;;;;;3.40;3.00;;;37.20;42.50;;;;;;4993855;28;20436;-77
2023/07/11 13:39:23;;;;;;;2.97;2.50;;;37.20;40.80;;;;;;4993694;28;20449;-77
2023/07/11 13:41:54;;;;;;;2.87;2.13;;;37.30;40.80;;;;;;4993401;28;20476;-76
2023/07/11 13:44:27;;;;;;;2.57;2.37;;;37.30;41.60;;;;;;4993820;28;20437;-77
2023/07/11 13:46:54;;;;;;;3.60;3.00;;;37.30;41.70;;;;;;4993483;28;20781;-78
2023/07/11 13:49:23;;;;;;;3.07;2.87;;;37.40;38.90;;;;;;4993483;28;20914;-77
2023/07/11 13:51:57;;;;;;;3.33;2.77;;;37.10;37.00;;;;;;4993686;28;20469;-78
2023/07/11 13:54:32;;;;;;;2.83;2.60;;;37.40;37.80;;;;;;4993575;28;20471;-77
2023/07/11 13:56:58;;;;;;;3.47;3.17;;;37.40;35.20;;;;;;4993724;28;20484;-78
2023/07/11 13:59:25;;;;;;;3.40;2.97;;;37.20;34.40;;;;;;4993601;28;20455;-78
2023/07/11 14:01:52;;;;;;;3.20;2.90;;;37.20;37.30;;;;;;4993559;28;20527;-79
2023/07/11 14:04:27;;;;;;;5.13;3.03;;;37.30;36.20;;;;;;4993703;28;20852;-79
2023/07/11 14:06:54;;;;;;;3.37;3.07;;;37.50;36.20;;;;;;4993740;28;20432;-78
2023/07/11 14:09:22;;;;;;;2.60;2.40;;;37.40;36.70;;;;;;4993563;28;20448;-79
2023/07/11 14:11:49;;;;;;;3.80;3.37;;;37.30;36.50;;;;;;4993435;28;20472;-76
2023/07/11 14:14:18;;;;;;;3.80;2.77;;;37.10;37.00;;;;;;4993458;28;20491;-78
2023/07/11 14:16:45;;;;;;;4.70;2.80;;;37.10;38.30;;;;;;4997174;28;20452;-79
2023/07/11 14:19:24;;;;;;;3.07;2.70;;;37.40;38.20;;;;;;4997078;28;20498;-78
2023/07/11 14:21:53;;;;;;;3.83;2.67;;;37.60;36.00;;;;;;4996689;28;20473;-78
2023/07/11 14:24:20;;;;;;;4.00;2.80;;;37.40;35.80;;;;;;4996691;28;20441;-79
2023/07/11 14:26:48;;;;;;;3.50;2.77;;;37.50;36.60;;;;;;4997378;28;20444;-79
2023/07/11 14:29:20;;;;;;;3.63;2.83;;;37.70;35.90;;;;;;4997464;28;20511;-78
2023/07/11 14:31:48;;;;;;;3.93;3.00;;;37.80;36.70;;;;;;4997069;28;20527;-77
2023/07/11 14:34:19;;;;;;;3.00;2.70;;;37.80;36.60;;;;;;4996946;28;20487;-77
2023/07/11 14:36:46;;;;;;;3.20;2.90;;;37.80;36.60;;;;;;4997248;28;20468;-77
2023/07/11 14:39:14;;;;;;;3.47;3.17;;;37.50;36.90;;;;;;4996691;28;20515;-77
2023/07/11 14:41:41;;;;;;;3.40;3.00;;;37.40;37.60;;;;;;4996750;28;20475;-77
2023/07/11 14:44:22;;;;;;;3.13;2.73;;;37.60;39.00;;;;;;4996823;28;20442;-78
2023/07/11 14:46:50;;;;;;;3.47;3.17;;;37.80;37.00;;;;;;4997234;28;20495;-79
2023/07/11 14:49:17;;;;;;;3.67;2.90;;;38.10;36.50;;;;;;4997428;28;20475;-79
2023/07/11 14:51:44;;;;;;;3.23;2.80;;;38.40;36.30;;;;;;4997310;28;20843;-79
2023/07/11 14:54:16;;;;;;;3.60;2.60;;;38.40;37.30;;;;;;4997085;28;20516;-79
2023/07/11 14:56:43;;;;;;;3.10;2.80;;;38.50;35.30;;;;;;4997691;28;20440;-77
2023/07/11 14:59:30;;;;;;;3.23;2.93;;;38.60;35.70;;;;;;4996349;28;20456;-77
2023/07/11 15:01:59;;;;;;;3.30;3.10;;;38.80;36.10;;;;;;4996007;28;20831;-77
2023/07/11 15:04:28;;;;;;;3.27;2.97;;;38.80;35.60;;;;;;4996207;28;20452;-77
2023/07/11 15:06:55;;;;;;;3.30;3.00;;;38.40;35.70;;;;;;4995837;28;20873;-76
2023/07/11 15:09:23;;;;;;;3.27;2.77;;;38.60;36.20;;;;;;4996135;28;20457;-77
2023/07/11 15:11:50;;;;;;;3.33;3.03;;;38.80;35.90;;;;;;4996112;28;20476;-76
2023/07/11 15:14:20;;;;;;;3.60;3.10;;;38.70;35.90;;;;;;4995725;28;20890;-77
2023/07/11 15:16:49;;;;;;;3.20;2.90;;;38.40;35.60;;;;;;4995713;28;20930;-77
2023/07/11 15:19:18;;;;;;;3.70;3.40;;;38.40;36.50;;;;;;4996263;28;20448;-78
2023/07/11 15:21:46;;;;;;;3.57;3.27;;;38.30;35.20;;;;;;4995738;28;20859;-77
2023/07/11 15:24:14;;;;;;;3.43;3.10;;;38.10;36.00;;;;;;4995978;28;20938;-76
2023/07/11 15:26:41;;;;;;;3.60;3.30;;;38.00;35.00;;;;;;4995056;28;20470;-77
2023/07/11 15:29:12;;;;;;;3.13;2.83;;;38.10;34.50;;;;;;4995981;28;20527;-76
2023/07/11 15:31:41;;;;;;;3.17;2.87;;;38.20;33.10;;;;;;4995921;28;20977;-77
2023/07/11 15:34:14;;;;;;;3.27;2.97;;;38.30;32.70;;;;;;4995622;28;20486;-77
2023/07/11 15:36:41;;;;;;;3.30;3.00;;;38.60;33.50;;;;;;4996074;28;20836;-77
2023/07/11 15:39:09;;;;;;;3.43;3.13;;;38.70;33.10;;;;;;4995636;28;20880;-77
2023/07/11 15:41:36;;;;;;;3.83;2.90;;;38.80;33.40;;;;;;4996008;28;20472;-77
2023/07/11 15:44:03;;;;;;;3.10;2.80;;;38.90;33.40;;;;;;4995652;28;20522;-77
2023/07/11 15:46:29;;;;;;;3.10;2.80;;;39.00;33.50;;;;;;4995640;28;20445;-77
2023/07/11 15:48:58;;;;;;;2.83;2.60;;;39.10;33.60;;;;;;4995278;28;20853;-77
2023/07/11 15:51:26;;;;;;;3.10;2.80;;;39.00;33.30;;;;;;4995591;28;20465;-76
2023/07/11 15:53:53;;;;;;;2.67;2.47;;;38.80;31.80;;;;;;4995575;28;20851;-76
2023/07/11 15:56:20;;;;;;;3.20;3.00;;;38.70;32.60;;;;;;4995752;28;20445;-76
2023/07/11 15:58:46;;;;;;;3.17;2.97;;;38.30;32.90;;;;;;4995580;28;20951;-76
2023/07/11 16:01:13;;;;;;;3.53;3.23;;;38.10;33.60;;;;;;4994999;28;20915;-77
2023/07/11 16:03:40;;;;;;;4.17;3.87;;;37.90;34.30;;;;;;4995339;28;20437;-77
2023/07/11 16:06:16;;;;;;;3.60;3.30;;;37.60;34.70;;;;;;4995759;28;20520;-77
2023/07/11 16:08:43;;;;;;;3.03;2.77;;;37.50;35.00;;;;;;4995927;28;20441;-77
2023/07/11 16:11:11;;;;;;;2.90;2.70;;;37.20;35.60;;;;;;4995050;28;20552;-78
2023/07/11 16:13:38;;;;;;;3.27;2.97;;;37.10;35.90;;;;;;4994890;28;20491;-77
2023/07/11 16:16:10;;;;;;;3.37;3.07;;;37.00;35.80;;;;;;5018209;23;20500;-75
2023/07/11 16:18:37;;;;;;;3.93;3.63;;;36.90;36.50;;;;;;4994935;28;20433;-74
2023/07/11 16:21:04;;;;;;;3.40;3.10;;;36.80;36.10;;;;;;4994813;28;20441;-75
2023/07/11 16:23:32;;;;;;;3.37;3.07;;;36.70;36.50;;;;;;4994727;28;20449;-75
2023/07/11 16:25:59;;;;;;;3.70;3.40;;;36.60;35.90;;;;;;4994651;28;20523;-75
2023/07/11 16:28:27;;;;;;;3.30;3.00;;;36.60;35.60;;;;;;4994621;28;20452;-73
2023/07/11 16:30:59;;;;;;;3.20;3.00;;;36.60;35.90;;;;;;4994623;28;20893;-74
2023/07/11 16:33:28;;;;;;;4.53;3.17;;;36.60;36.30;;;;;;4994503;28;20891;-74
2023/07/11 16:35:56;;;;;;;6.50;3.60;;;36.70;36.20;;;;;;4994431;28;20464;-74
2023/07/11 16:38:24;;;;;;;3.43;3.13;;;36.80;36.60;;;;;;4993880;28;20865;-73
2023/07/11 16:40:52;;;;;;;3.50;3.13;;;36.80;36.00;;;;;;4994442;28;20503;-74
2023/07/11 16:43:20;;;;;;;3.03;2.73;;;36.90;35.90;;;;;;4995188;28;20445;-74
2023/07/11 16:45:48;;;;;;;3.30;3.00;;;36.90;35.40;;;;;;4994236;28;20534;-74
2023/07/11 16:48:17;;;;;;;2.83;2.60;;;37.00;35.80;;;;;;4994006;28;20871;-74
2023/07/11 16:50:44;;;;;;;3.17;2.97;;;36.80;35.60;;;;;;4994673;28;20449;-74
2023/07/11 16:53:18;;;;;;;3.60;2.97;;;36.70;36.70;;;;;;4994224;28;20445;-75
2023/07/11 16:55:45;;;;;;;3.07;2.80;;;36.70;36.10;;;;;;4994268;28;20563;-74
2023/07/11 16:58:19;;;;;;;3.40;3.10;;;36.70;37.30;;;;;;4994211;28;20457;-74
2023/07/11 17:00:47;;;;;;;3.57;3.27;;;36.60;38.40;;;;;;4994190;28;20452;-74
2023/07/11 17:03:14;;;;;;;3.53;3.23;;;36.60;39.30;;;;;;4994141;28;20464;-74